Flight Track Log - Related Links

Times and Time Zones

All times are in EDT time to prevent confusion due to time zone crossing. See the SKW5564 flight status page for this flight to view local times or setup timezone preferences in your user account.

Time Position Orientation Groundspeed Altitude Reporting Facility
EDT Latitude Longitude Course Direction KTS MPH feet Rate Location/Type
Thu 03:41:00 PM 41.0146 -112.1164 81° East  Level FlightAware Approximate
Thu 03:42:00 PM 40.9828 -111.9639 103° East  Level FlightAware Approximate
Thu 03:43:00 PM 40.9545 -111.8073 103° East  Level FlightAware Approximate
Thu 03:44:00 PM 40.9260 -111.6509 104° East  Level FlightAware Approximate
Thu 03:45:00 PM 40.9126 -111.4921 102° East  Level FlightAware Approximate
Thu 03:46:00 PM 40.8906 -111.3343 101° East  Level FlightAware Approximate
Thu 03:47:00 PM 40.8721 -111.1755 98° East  Level FlightAware Approximate
Thu 03:48:00 PM 40.8553 -111.0163 98° East  Level FlightAware Approximate
Thu 03:49:00 PM 40.8345 -110.8580 101° East  Level FlightAware Approximate
Thu 03:50:00 PM 40.8134 -110.6999 100° East  Level FlightAware Approximate
Thu 03:51:00 PM 40.7928 -110.5416 99° East  Level FlightAware Approximate
Thu 03:52:00 PM 40.7731 -110.3832 99° East  Level FlightAware Approximate
Thu 03:53:00 PM 40.7532 -110.2249 99° East  Level FlightAware Approximate
Thu 03:54:00 PM 40.7366 -110.0660 97° East  Level FlightAware Approximate
Thu 03:55:00 PM 40.7267 -109.9062 94° East  Level FlightAware Approximate
Thu 03:56:00 PM 40.7183 -109.7462 94° East  Level FlightAware Approximate
Thu 03:57:00 PM 40.7050 -109.5869 97° East  Level FlightAware Approximate
Thu 03:58:00 PM 40.6905 -109.4277 97° East  Level FlightAware Approximate
Thu 03:59:00 PM 40.6780 -109.2683 95° East  Level FlightAware Approximate
Thu 04:00:00 PM 40.6673 -109.1087 95° East  Level FlightAware Approximate
Thu 04:01:00 PM 40.6552 -108.9492 96° East  Level FlightAware Approximate
Thu 04:02:00 PM 40.6429 -108.7899 96° East  Level FlightAware Approximate
Thu 04:03:00 PM 40.6303 -108.6305 96° East  Level FlightAware Approximate
Thu 04:04:00 PM 40.6175 -108.4713 96° East  Level FlightAware Approximate
Thu 04:05:00 PM 40.6045 -108.3121 96° East  Level FlightAware Approximate
Thu 04:06:00 PM 40.5913 -108.1530 96° East  Level FlightAware Approximate
Thu 04:07:00 PM 40.5779 -107.9939 96° East  Level FlightAware Approximate
Thu 04:08:00 PM 40.5642 -107.8349 96° East  Level FlightAware Approximate
Thu 04:09:00 PM 40.5504 -107.6760 97° East  Level FlightAware Approximate
Thu 04:10:00 PM 40.5363 -107.5171 97° East  Level FlightAware Approximate
Thu 04:11:00 PM 40.5220 -107.3583 97° East  Level FlightAware Approximate
Thu 04:12:00 PM 40.5099 -107.1993 95° East  Level FlightAware Approximate
Thu 04:13:00 PM 40.4991 -107.0401 95° East  Level FlightAware Approximate
Thu 04:14:00 PM 40.4880 -106.8809 95° East  Level FlightAware Approximate
Thu 04:15:00 PM 40.4767 -106.7218 95° East  Level FlightAware Approximate
Thu 04:16:00 PM 40.4667 -106.5627 90° East  Level FlightAware Approximate
Thu 04:17:00 PM 40.4667 -106.4029 90° East  Level FlightAware Approximate
Thu 04:18:00 PM 40.4468 -106.2542 94° East  Level FlightAware Approximate
Thu 04:19:00 PM 40.4384 -106.0948 94° East  Level FlightAware Approximate
Thu 04:20:00 PM 40.4275 -105.9360 99° East  Level FlightAware Approximate
Thu 04:21:00 PM 40.4078 -105.7785 99° East  Level FlightAware Approximate
Thu 04:22:00 PM 40.3771 -105.6269 98° East  Level FlightAware Approximate
Thu 04:23:00 PM 40.3541 -105.4705 105° East  Level FlightAware Approximate
Thu 04:24:00 PM 40.2927 -105.3378 128° Southeast  Level FlightAware Approximate
Thu 04:25:00 PM 40.2126 -105.2189 131° Southeast  Level FlightAware Approximate
Thu 04:26:00 PM 40.1382 -105.0989 131° Southeast  Level FlightAware Approximate
Thu 04:27:00 PM 40.0619 -104.9753 128° Southeast  Level FlightAware Approximate
Thu 04:28:00 PM 39.9832 -104.8553 128° Southeast  Level FlightAware Approximate
Thu 04:29:00 PM 39.8823 -104.8000 180° South  Level FlightAware Approximate
Thu 04:30:00 PM 39.8617 -104.6732 180° South  Level Estimated
Thu 04:31:00 PM 39.8617 -104.6732 180° South  Level Estimated
Thu 04:32:00 PM 39.8617 -104.6732 185° South  Level Estimated
Thu 04:33:00 PM 39.8617 -104.6732 14° North  Level Estimated
Thu 04:34:00 PM 39.8617 -104.6732 193° South  Level Estimated
Thu 04:35:00 PM 39.8617 -104.6732 18° North  Level Estimated
Thu 04:36:00 PM 39.8617 -104.6732 North  Level Estimated
Thu 04:37:00 PM 39.8617 -104.6732 North  Level Estimated
Thu 04:38:00 PM 39.8617 -104.6732 North  Level Estimated
Thu 04:39:00 PM 39.8617 -104.6732 North  Level Estimated

Login

Don't have an account? Register now (free) for customized features, flight alerts, and more!